sensor_id;sensor_type;location;lat;lon;timestamp;temperature;humidity
43524;DHT22;29120;52.006;6.020;2023-01-23T00:00:56;2.90;99.90
43524;DHT22;29120;52.006;6.020;2023-01-23T00:03:21;2.90;99.90
43524;DHT22;29120;52.006;6.020;2023-01-23T00:05:59;2.90;99.90
43524;DHT22;29120;52.006;6.020;2023-01-23T00:08:25;2.90;99.90
43524;DHT22;29120;52.006;6.020;2023-01-23T00:10:51;2.90;99.90
43524;DHT22;29120;52.006;6.020;2023-01-23T00:13:17;2.80;99.90
43524;DHT22;29120;52.006;6.020;2023-01-23T00:15:42;2.80;99.90
43524;DHT22;29120;52.006;6.020;2023-01-23T00:18:08;2.80;99.90
43524;DHT22;29120;52.006;6.020;2023-01-23T00:20:35;2.80;99.90
43524;DHT22;29120;52.006;6.020;2023-01-23T00:23:01;2.80;99.90
43524;DHT22;29120;52.006;6.020;2023-01-23T00:25:26;2.80;99.90
43524;DHT22;29120;52.006;6.020;2023-01-23T00:27:52;2.80;99.90
43524;DHT22;29120;52.006;6.020;2023-01-23T00:30:17;2.80;99.90
43524;DHT22;29120;52.006;6.020;2023-01-23T00:32:43;2.80;99.90
43524;DHT22;29120;52.006;6.020;2023-01-23T00:35:08;2.80;99.90
43524;DHT22;29120;52.006;6.020;2023-01-23T00:37:34;2.80;99.90
43524;DHT22;29120;52.006;6.020;2023-01-23T00:39:59;2.80;99.90
43524;DHT22;29120;52.006;6.020;2023-01-23T00:42:25;2.80;99.90
43524;DHT22;29120;52.006;6.020;2023-01-23T00:44:50;2.80;99.90
43524;DHT22;29120;52.006;6.020;2023-01-23T00:47:16;2.80;99.90
43524;DHT22;29120;52.006;6.020;2023-01-23T00:49:41;2.80;99.90
43524;DHT22;29120;52.006;6.020;2023-01-23T00:52:06;2.80;99.90
43524;DHT22;29120;52.006;6.020;2023-01-23T00:54:32;2.80;99.90
43524;DHT22;29120;52.006;6.020;2023-01-23T00:56:57;2.80;99.90
43524;DHT22;29120;52.006;6.020;2023-01-23T00:59:23;2.80;99.90
43524;DHT22;29120;52.006;6.020;2023-01-23T01:01:48;2.80;99.90
43524;DHT22;29120;52.006;6.020;2023-01-23T01:04:14;2.80;99.90
43524;DHT22;29120;52.006;6.020;2023-01-23T01:06:40;2.80;99.90
43524;DHT22;29120;52.006;6.020;2023-01-23T01:09:05;2.80;99.90
43524;DHT22;29120;52.006;6.020;2023-01-23T01:11:31;2.80;99.90
43524;DHT22;29120;52.006;6.020;2023-01-23T01:13:56;2.90;99.90
43524;DHT22;29120;52.006;6.020;2023-01-23T01:16:22;2.90;99.90
43524;DHT22;29120;52.006;6.020;2023-01-23T01:18:48;2.90;99.90
43524;DHT22;29120;52.006;6.020;2023-01-23T01:21:14;2.90;99.90
43524;DHT22;29120;52.006;6.020;2023-01-23T01:23:40;2.90;99.90
43524;DHT22;29120;52.006;6.020;2023-01-23T01:26:06;2.90;99.90
43524;DHT22;29120;52.006;6.020;2023-01-23T01:28:32;2.80;99.90
43524;DHT22;29120;52.006;6.020;2023-01-23T01:31:02;2.90;99.90
43524;DHT22;29120;52.006;6.020;2023-01-23T01:33:27;2.90;99.90
43524;DHT22;29120;52.006;6.020;2023-01-23T01:35:53;2.90;99.90
43524;DHT22;29120;52.006;6.020;2023-01-23T01:38:21;2.90;99.90
43524;DHT22;29120;52.006;6.020;2023-01-23T01:40:46;3.00;99.90
43524;DHT22;29120;52.006;6.020;2023-01-23T01:43:23;3.00;99.90
43524;DHT22;29120;52.006;6.020;2023-01-23T01:51:12;2.90;99.90
43524;DHT22;29120;52.006;6.020;2023-01-23T01:53:38;2.90;99.90
43524;DHT22;29120;52.006;6.020;2023-01-23T01:56:04;2.90;99.90
43524;DHT22;29120;52.006;6.020;2023-01-23T01:58:30;2.90;99.90
43524;DHT22;29120;52.006;6.020;2023-01-23T02:00:55;2.90;99.90
43524;DHT22;29120;52.006;6.020;2023-01-23T02:03:21;2.90;99.90
43524;DHT22;29120;52.006;6.020;2023-01-23T02:05:47;3.00;99.90
43524;DHT22;29120;52.006;6.020;2023-01-23T02:10:48;3.00;99.90
43524;DHT22;29120;52.006;6.020;2023-01-23T02:16:05;3.00;99.90
43524;DHT22;29120;52.006;6.020;2023-01-23T02:18:31;3.00;99.90
43524;DHT22;29120;52.006;6.020;2023-01-23T02:20:58;3.10;99.90
43524;DHT22;29120;52.006;6.020;2023-01-23T02:23:42;3.10;99.90
43524;DHT22;29120;52.006;6.020;2023-01-23T02:26:12;3.10;99.90
43524;DHT22;29120;52.006;6.020;2023-01-23T02:31:05;3.20;99.90
43524;DHT22;29120;52.006;6.020;2023-01-23T02:35:56;3.20;99.90
43524;DHT22;29120;52.006;6.020;2023-01-23T02:38:23;3.20;99.90
43524;DHT22;29120;52.006;6.020;2023-01-23T02:40:49;3.30;99.90
43524;DHT22;29120;52.006;6.020;2023-01-23T02:43:17;3.30;99.90
43524;DHT22;29120;52.006;6.020;2023-01-23T02:45:45;3.30;99.90
43524;DHT22;29120;52.006;6.020;2023-01-23T02:48:11;3.20;99.90
43524;DHT22;29120;52.006;6.020;2023-01-23T02:50:37;3.20;99.90
43524;DHT22;29120;52.006;6.020;2023-01-23T02:53:02;3.20;99.90
43524;DHT22;29120;52.006;6.020;2023-01-23T02:55:28;3.20;99.90
43524;DHT22;29120;52.006;6.020;2023-01-23T02:57:57;3.20;99.90
43524;DHT22;29120;52.006;6.020;2023-01-23T03:00:43;3.20;99.90
43524;DHT22;29120;52.006;6.020;2023-01-23T03:03:08;3.20;99.90
43524;DHT22;29120;52.006;6.020;2023-01-23T03:05:34;3.20;99.90
43524;DHT22;29120;52.006;6.020;2023-01-23T03:07:59;3.20;99.90
43524;DHT22;29120;52.006;6.020;2023-01-23T03:10:25;3.30;99.90
43524;DHT22;29120;52.006;6.020;2023-01-23T03:12:50;3.20;99.90
43524;DHT22;29120;52.006;6.020;2023-01-23T03:15:16;3.20;99.90
43524;DHT22;29120;52.006;6.020;2023-01-23T03:17:41;3.20;99.90
43524;DHT22;29120;52.006;6.020;2023-01-23T03:20:07;3.20;99.90
43524;DHT22;29120;52.006;6.020;2023-01-23T03:22:32;3.20;99.90
43524;DHT22;29120;52.006;6.020;2023-01-23T03:24:58;3.20;99.90
43524;DHT22;29120;52.006;6.020;2023-01-23T03:27:23;3.20;99.90
43524;DHT22;29120;52.006;6.020;2023-01-23T03:29:49;3.20;99.90
43524;DHT22;29120;52.006;6.020;2023-01-23T03:32:33;3.20;99.90
43524;DHT22;29120;52.006;6.020;2023-01-23T03:34:59;3.20;99.90
43524;DHT22;29120;52.006;6.020;2023-01-23T03:37:24;3.20;99.90
43524;DHT22;29120;52.006;6.020;2023-01-23T03:39:50;3.20;99.90
43524;DHT22;29120;52.006;6.020;2023-01-23T03:42:34;3.20;99.90
43524;DHT22;29120;52.006;6.020;2023-01-23T03:44:59;3.20;99.90
43524;DHT22;29120;52.006;6.020;2023-01-23T03:47:25;3.20;99.90
43524;DHT22;29120;52.006;6.020;2023-01-23T03:49:50;3.20;99.90
43524;DHT22;29120;52.006;6.020;2023-01-23T03:52:16;3.20;99.90
43524;DHT22;29120;52.006;6.020;2023-01-23T03:54:41;3.20;99.90
43524;DHT22;29120;52.006;6.020;2023-01-23T03:57:07;3.20;99.90
43524;DHT22;29120;52.006;6.020;2023-01-23T03:59:32;3.20;99.90
43524;DHT22;29120;52.006;6.020;2023-01-23T04:01:58;3.20;99.90
43524;DHT22;29120;52.006;6.020;2023-01-23T04:04:25;3.20;99.90
43524;DHT22;29120;52.006;6.020;2023-01-23T04:06:50;3.20;99.90
43524;DHT22;29120;52.006;6.020;2023-01-23T04:09:16;3.20;99.90
43524;DHT22;29120;52.006;6.020;2023-01-23T04:11:41;3.20;99.90
43524;DHT22;29120;52.006;6.020;2023-01-23T04:14:06;3.20;99.90
43524;DHT22;29120;52.006;6.020;2023-01-23T04:16:32;3.20;99.90
43524;DHT22;29120;52.006;6.020;2023-01-23T04:18:57;3.20;99.90
43524;DHT22;29120;52.006;6.020;2023-01-23T04:21:23;3.20;99.90
43524;DHT22;29120;52.006;6.020;2023-01-23T04:23:49;3.20;99.90
43524;DHT22;29120;52.006;6.020;2023-01-23T04:26:15;3.20;99.90
43524;DHT22;29120;52.006;6.020;2023-01-23T04:28:40;3.20;99.90
43524;DHT22;29120;52.006;6.020;2023-01-23T04:31:06;3.20;99.90
43524;DHT22;29120;52.006;6.020;2023-01-23T04:33:33;3.20;99.90
43524;DHT22;29120;52.006;6.020;2023-01-23T04:36:00;3.20;99.90
43524;DHT22;29120;52.006;6.020;2023-01-23T04:38:26;3.20;99.90
43524;DHT22;29120;52.006;6.020;2023-01-23T04:40:52;3.20;99.90
43524;DHT22;29120;52.006;6.020;2023-01-23T04:43:17;3.20;99.90
43524;DHT22;29120;52.006;6.020;2023-01-23T04:45:43;3.20;99.90
43524;DHT22;29120;52.006;6.020;2023-01-23T04:48:09;3.20;99.90
43524;DHT22;29120;52.006;6.020;2023-01-23T04:50:34;3.20;99.90
43524;DHT22;29120;52.006;6.020;2023-01-23T04:53:00;3.20;99.90
43524;DHT22;29120;52.006;6.020;2023-01-23T04:55:26;3.20;99.90
43524;DHT22;29120;52.006;6.020;2023-01-23T04:57:52;3.20;99.90
43524;DHT22;29120;52.006;6.020;2023-01-23T05:00:18;3.30;99.90
43524;DHT22;29120;52.006;6.020;2023-01-23T05:02:46;3.30;99.90
43524;DHT22;29120;52.006;6.020;2023-01-23T05:05:12;3.30;99.90
43524;DHT22;29120;52.006;6.020;2023-01-23T05:07:38;3.30;99.90
43524;DHT22;29120;52.006;6.020;2023-01-23T05:10:04;3.30;99.90
43524;DHT22;29120;52.006;6.020;2023-01-23T05:12:30;3.30;99.90
43524;DHT22;29120;52.006;6.020;2023-01-23T05:14:55;3.30;99.90
43524;DHT22;29120;52.006;6.020;2023-01-23T05:17:21;3.30;99.90
43524;DHT22;29120;52.006;6.020;2023-01-23T05:19:46;3.30;99.90
43524;DHT22;29120;52.006;6.020;2023-01-23T05:22:12;3.30;99.90
43524;DHT22;29120;52.006;6.020;2023-01-23T05:24:37;3.30;99.90
43524;DHT22;29120;52.006;6.020;2023-01-23T05:27:03;3.30;99.90
43524;DHT22;29120;52.006;6.020;2023-01-23T05:29:28;3.30;99.90
43524;DHT22;29120;52.006;6.020;2023-01-23T05:31:54;3.30;99.90
43524;DHT22;29120;52.006;6.020;2023-01-23T05:34:19;3.30;99.90
43524;DHT22;29120;52.006;6.020;2023-01-23T05:36:45;3.30;99.90
43524;DHT22;29120;52.006;6.020;2023-01-23T05:39:10;3.30;99.90
43524;DHT22;29120;52.006;6.020;2023-01-23T05:41:36;3.30;99.90
43524;DHT22;29120;52.006;6.020;2023-01-23T05:44:01;3.30;99.90
43524;DHT22;29120;52.006;6.020;2023-01-23T05:46:27;3.30;99.90
43524;DHT22;29120;52.006;6.020;2023-01-23T05:48:52;3.30;99.90
43524;DHT22;29120;52.006;6.020;2023-01-23T05:51:18;3.30;99.90
43524;DHT22;29120;52.006;6.020;2023-01-23T05:53:43;3.30;99.90
43524;DHT22;29120;52.006;6.020;2023-01-23T05:56:09;3.30;99.90
43524;DHT22;29120;52.006;6.020;2023-01-23T05:58:34;3.30;99.90
43524;DHT22;29120;52.006;6.020;2023-01-23T06:01:01;3.30;99.90
43524;DHT22;29120;52.006;6.020;2023-01-23T06:03:26;3.30;99.90
43524;DHT22;29120;52.006;6.020;2023-01-23T06:05:52;3.30;99.90
43524;DHT22;29120;52.006;6.020;2023-01-23T06:08:17;3.30;99.90
43524;DHT22;29120;52.006;6.020;2023-01-23T06:10:42;3.30;99.90
43524;DHT22;29120;52.006;6.020;2023-01-23T06:13:09;3.30;99.90
43524;DHT22;29120;52.006;6.020;2023-01-23T06:15:34;3.30;99.90
43524;DHT22;29120;52.006;6.020;2023-01-23T06:18:00;3.30;99.90
43524;DHT22;29120;52.006;6.020;2023-01-23T06:20:25;3.30;99.90
43524;DHT22;29120;52.006;6.020;2023-01-23T06:22:51;3.30;99.90
43524;DHT22;29120;52.006;6.020;2023-01-23T06:25:16;3.30;99.90
43524;DHT22;29120;52.006;6.020;2023-01-23T06:27:45;3.30;99.90
43524;DHT22;29120;52.006;6.020;2023-01-23T06:30:10;3.30;99.90
43524;DHT22;29120;52.006;6.020;2023-01-23T06:32:36;3.40;99.90
43524;DHT22;29120;52.006;6.020;2023-01-23T06:35:01;3.30;99.90
43524;DHT22;29120;52.006;6.020;2023-01-23T06:37:27;3.30;99.90
43524;DHT22;29120;52.006;6.020;2023-01-23T06:39:52;3.30;99.90
43524;DHT22;29120;52.006;6.020;2023-01-23T06:42:18;3.40;99.90
43524;DHT22;29120;52.006;6.020;2023-01-23T06:44:43;3.30;99.90
43524;DHT22;29120;52.006;6.020;2023-01-23T06:47:09;3.40;99.90
43524;DHT22;29120;52.006;6.020;2023-01-23T06:49:34;3.40;99.90
43524;DHT22;29120;52.006;6.020;2023-01-23T06:52:00;3.40;99.90
43524;DHT22;29120;52.006;6.020;2023-01-23T06:54:25;3.40;99.90
43524;DHT22;29120;52.006;6.020;2023-01-23T06:56:51;3.40;99.90
43524;DHT22;29120;52.006;6.020;2023-01-23T06:59:16;3.40;99.90
43524;DHT22;29120;52.006;6.020;2023-01-23T07:01:42;3.30;99.90
43524;DHT22;29120;52.006;6.020;2023-01-23T07:04:07;3.40;99.90
43524;DHT22;29120;52.006;6.020;2023-01-23T07:06:36;3.30;99.90
43524;DHT22;29120;52.006;6.020;2023-01-23T07:09:01;3.40;99.90
43524;DHT22;29120;52.006;6.020;2023-01-23T07:11:27;3.40;99.90
43524;DHT22;29120;52.006;6.020;2023-01-23T07:13:52;3.40;99.90
43524;DHT22;29120;52.006;6.020;2023-01-23T07:16:18;3.40;99.90
43524;DHT22;29120;52.006;6.020;2023-01-23T07:18:44;3.40;99.90
43524;DHT22;29120;52.006;6.020;2023-01-23T07:21:09;3.40;99.90
43524;DHT22;29120;52.006;6.020;2023-01-23T07:23:35;3.40;99.90
43524;DHT22;29120;52.006;6.020;2023-01-23T07:26:01;3.40;99.90
43524;DHT22;29120;52.006;6.020;2023-01-23T07:28:28;3.40;99.90
43524;DHT22;29120;52.006;6.020;2023-01-23T07:30:53;3.40;99.90
43524;DHT22;29120;52.006;6.020;2023-01-23T07:33:18;3.40;99.90
43524;DHT22;29120;52.006;6.020;2023-01-23T07:35:44;3.40;99.90
43524;DHT22;29120;52.006;6.020;2023-01-23T07:38:09;3.40;99.90
43524;DHT22;29120;52.006;6.020;2023-01-23T07:40:35;3.40;99.90
43524;DHT22;29120;52.006;6.020;2023-01-23T07:43:03;3.40;99.90
43524;DHT22;29120;52.006;6.020;2023-01-23T07:45:29;3.40;99.90
43524;DHT22;29120;52.006;6.020;2023-01-23T07:47:54;3.40;99.90
43524;DHT22;29120;52.006;6.020;2023-01-23T07:50:20;3.40;99.90
43524;DHT22;29120;52.006;6.020;2023-01-23T07:55:18;3.50;99.90
43524;DHT22;29120;52.006;6.020;2023-01-23T07:57:43;3.50;99.90
43524;DHT22;29120;52.006;6.020;2023-01-23T08:00:09;3.50;99.90
43524;DHT22;29120;52.006;6.020;2023-01-23T08:02:35;3.50;99.90
43524;DHT22;29120;52.006;6.020;2023-01-23T08:05:01;3.50;99.90
43524;DHT22;29120;52.006;6.020;2023-01-23T08:07:26;3.50;99.90
43524;DHT22;29120;52.006;6.020;2023-01-23T08:09:52;3.50;99.90
43524;DHT22;29120;52.006;6.020;2023-01-23T08:12:18;3.50;99.90
43524;DHT22;29120;52.006;6.020;2023-01-23T08:14:43;3.50;99.90
43524;DHT22;29120;52.006;6.020;2023-01-23T08:17:08;3.60;99.90
43524;DHT22;29120;52.006;6.020;2023-01-23T08:19:34;3.60;99.90
43524;DHT22;29120;52.006;6.020;2023-01-23T08:22:00;3.60;99.90
43524;DHT22;29120;52.006;6.020;2023-01-23T08:24:25;3.60;99.90
43524;DHT22;29120;52.006;6.020;2023-01-23T08:26:50;3.60;99.90
43524;DHT22;29120;52.006;6.020;2023-01-23T08:29:16;3.60;99.90
43524;DHT22;29120;52.006;6.020;2023-01-23T08:31:41;3.60;99.90
43524;DHT22;29120;52.006;6.020;2023-01-23T08:34:07;3.70;99.90
43524;DHT22;29120;52.006;6.020;2023-01-23T08:36:32;3.70;99.90
43524;DHT22;29120;52.006;6.020;2023-01-23T08:38:58;3.70;99.90
43524;DHT22;29120;52.006;6.020;2023-01-23T08:41:24;3.80;99.90
43524;DHT22;29120;52.006;6.020;2023-01-23T08:43:49;3.80;99.90
43524;DHT22;29120;52.006;6.020;2023-01-23T08:46:15;3.80;99.90
43524;DHT22;29120;52.006;6.020;2023-01-23T08:48:41;3.80;99.90
43524;DHT22;29120;52.006;6.020;2023-01-23T08:51:07;3.80;99.90
43524;DHT22;29120;52.006;6.020;2023-01-23T08:53:33;3.90;99.90
43524;DHT22;29120;52.006;6.020;2023-01-23T08:55:59;3.90;99.90
43524;DHT22;29120;52.006;6.020;2023-01-23T08:58:25;3.90;99.90
43524;DHT22;29120;52.006;6.020;2023-01-23T09:00:51;3.90;99.90
43524;DHT22;29120;52.006;6.020;2023-01-23T09:03:16;4.00;99.90
43524;DHT22;29120;52.006;6.020;2023-01-23T09:05:42;4.00;99.90
43524;DHT22;29120;52.006;6.020;2023-01-23T09:08:07;4.00;99.90
43524;DHT22;29120;52.006;6.020;2023-01-23T09:10:33;4.00;99.90
43524;DHT22;29120;52.006;6.020;2023-01-23T09:12:58;4.00;99.90
43524;DHT22;29120;52.006;6.020;2023-01-23T09:15:24;4.10;99.90
43524;DHT22;29120;52.006;6.020;2023-01-23T09:17:49;4.10;99.90
43524;DHT22;29120;52.006;6.020;2023-01-23T09:20:15;4.20;99.90
43524;DHT22;29120;52.006;6.020;2023-01-23T09:22:41;4.20;99.90
43524;DHT22;29120;52.006;6.020;2023-01-23T09:25:06;4.30;99.90
43524;DHT22;29120;52.006;6.020;2023-01-23T09:27:32;4.30;99.90
43524;DHT22;29120;52.006;6.020;2023-01-23T09:29:58;4.30;99.90
43524;DHT22;29120;52.006;6.020;2023-01-23T09:32:23;4.30;99.90
43524;DHT22;29120;52.006;6.020;2023-01-23T09:34:49;4.30;99.90
43524;DHT22;29120;52.006;6.020;2023-01-23T09:37:14;4.30;99.90
43524;DHT22;29120;52.006;6.020;2023-01-23T09:39:43;4.30;99.90
43524;DHT22;29120;52.006;6.020;2023-01-23T09:42:16;4.30;99.90
43524;DHT22;29120;52.006;6.020;2023-01-23T09:44:49;4.40;99.90
43524;DHT22;29120;52.006;6.020;2023-01-23T09:47:22;4.40;99.90
43524;DHT22;29120;52.006;6.020;2023-01-23T09:52:16;4.40;99.90
43524;DHT22;29120;52.006;6.020;2023-01-23T09:54:43;4.50;99.90
43524;DHT22;29120;52.006;6.020;2023-01-23T09:57:14;4.50;99.90
43524;DHT22;29120;52.006;6.020;2023-01-23T09:59:42;4.50;99.90
43524;DHT22;29120;52.006;6.020;2023-01-23T10:02:19;4.50;99.90
43524;DHT22;29120;52.006;6.020;2023-01-23T10:04:46;4.50;99.90
43524;DHT22;29120;52.006;6.020;2023-01-23T10:07:33;4.50;99.90
43524;DHT22;29120;52.006;6.020;2023-01-23T10:10:02;4.60;99.90
43524;DHT22;29120;52.006;6.020;2023-01-23T10:12:51;4.60;99.90
43524;DHT22;29120;52.006;6.020;2023-01-23T10:18:07;4.70;99.90
43524;DHT22;29120;52.006;6.020;2023-01-23T10:25:49;4.80;99.90
43524;DHT22;29120;52.006;6.020;2023-01-23T10:30:40;4.80;99.90
43524;DHT22;29120;52.006;6.020;2023-01-23T10:33:12;4.80;99.90
43524;DHT22;29120;52.006;6.020;2023-01-23T10:40:37;4.80;99.90
43524;DHT22;29120;52.006;6.020;2023-01-23T10:43:28;4.80;99.90
43524;DHT22;29120;52.006;6.020;2023-01-23T10:45:54;4.80;99.90
43524;DHT22;29120;52.006;6.020;2023-01-23T10:48:26;4.80;99.90
43524;DHT22;29120;52.006;6.020;2023-01-23T10:50:52;4.80;99.90
43524;DHT22;29120;52.006;6.020;2023-01-23T10:53:19;4.80;99.90
43524;DHT22;29120;52.006;6.020;2023-01-23T10:55:44;4.90;99.90
43524;DHT22;29120;52.006;6.020;2023-01-23T10:58:20;5.00;99.90
43524;DHT22;29120;52.006;6.020;2023-01-23T11:00:47;5.00;99.90
43524;DHT22;29120;52.006;6.020;2023-01-23T11:03:17;5.10;99.90
43524;DHT22;29120;52.006;6.020;2023-01-23T11:06:15;5.20;99.90
43524;DHT22;29120;52.006;6.020;2023-01-23T11:08:35;5.20;99.90
43524;DHT22;29120;52.006;6.020;2023-01-23T11:13:39;5.30;99.90
43524;DHT22;29120;52.006;6.020;2023-01-23T11:16:05;5.30;99.90
43524;DHT22;29120;52.006;6.020;2023-01-23T11:18:31;5.30;99.90
43524;DHT22;29120;52.006;6.020;2023-01-23T11:20:57;5.30;99.90
43524;DHT22;29120;52.006;6.020;2023-01-23T11:23:23;5.30;99.90
43524;DHT22;29120;52.006;6.020;2023-01-23T11:25:50;5.30;99.90
43524;DHT22;29120;52.006;6.020;2023-01-23T11:28:20;5.30;99.90
43524;DHT22;29120;52.006;6.020;2023-01-23T11:38:24;5.50;99.90
43524;DHT22;29120;52.006;6.020;2023-01-23T11:40:50;5.60;99.90
43524;DHT22;29120;52.006;6.020;2023-01-23T11:43:15;5.60;99.90
43524;DHT22;29120;52.006;6.020;2023-01-23T11:45:57;5.60;99.90
43524;DHT22;29120;52.006;6.020;2023-01-23T11:48:30;5.70;99.90
43524;DHT22;29120;52.006;6.020;2023-01-23T11:56:17;5.60;99.90
43524;DHT22;29120;52.006;6.020;2023-01-23T12:01:43;5.60;99.90
43524;DHT22;29120;52.006;6.020;2023-01-23T12:09:11;5.50;99.90
43524;DHT22;29120;52.006;6.020;2023-01-23T12:12:25;5.50;99.90
43524;DHT22;29120;52.006;6.020;2023-01-23T12:16:58;5.50;99.90
43524;DHT22;29120;52.006;6.020;2023-01-23T12:19:28;5.50;99.90
43524;DHT22;29120;52.006;6.020;2023-01-23T12:27:05;5.50;99.90
43524;DHT22;29120;52.006;6.020;2023-01-23T12:37:34;5.60;99.90
43524;DHT22;29120;52.006;6.020;2023-01-23T12:42:51;5.60;99.90
43524;DHT22;29120;52.006;6.020;2023-01-23T12:45:23;5.70;99.90
43524;DHT22;29120;52.006;6.020;2023-01-23T12:48:03;5.70;99.90
43524;DHT22;29120;52.006;6.020;2023-01-23T12:53:11;5.80;99.90
43524;DHT22;29120;52.006;6.020;2023-01-23T12:58:14;5.90;99.90
43524;DHT22;29120;52.006;6.020;2023-01-23T13:00:45;6.00;99.90
43524;DHT22;29120;52.006;6.020;2023-01-23T13:05:44;6.20;99.90
43524;DHT22;29120;52.006;6.020;2023-01-23T13:08:23;6.20;99.90
43524;DHT22;29120;52.006;6.020;2023-01-23T13:11:05;6.20;99.90
43524;DHT22;29120;52.006;6.020;2023-01-23T13:13:52;6.10;99.90
43524;DHT22;29120;52.006;6.020;2023-01-23T13:16:18;5.90;99.90
43524;DHT22;29120;52.006;6.020;2023-01-23T13:18:54;5.80;99.90
43524;DHT22;29120;52.006;6.020;2023-01-23T13:21:38;5.70;99.90
43524;DHT22;29120;52.006;6.020;2023-01-23T13:24:30;5.60;99.90
43524;DHT22;29120;52.006;6.020;2023-01-23T13:29:59;5.50;99.90
43524;DHT22;29120;52.006;6.020;2023-01-23T13:32:29;5.40;99.90
43524;DHT22;29120;52.006;6.020;2023-01-23T13:34:55;5.40;99.90
43524;DHT22;29120;52.006;6.020;2023-01-23T13:37:31;5.40;99.90
43524;DHT22;29120;52.006;6.020;2023-01-23T13:40:00;5.30;99.90
43524;DHT22;29120;52.006;6.020;2023-01-23T13:47:36;5.30;99.90
43524;DHT22;29120;52.006;6.020;2023-01-23T13:50:25;5.30;99.90
43524;DHT22;29120;52.006;6.020;2023-01-23T13:52:55;5.30;99.90
43524;DHT22;29120;52.006;6.020;2023-01-23T13:55:40;5.30;99.90
43524;DHT22;29120;52.006;6.020;2023-01-23T13:58:25;5.40;99.90
43524;DHT22;29120;52.006;6.020;2023-01-23T14:00:53;5.50;99.90
43524;DHT22;29120;52.006;6.020;2023-01-23T14:03:38;5.70;99.90
43524;DHT22;29120;52.006;6.020;2023-01-23T14:06:57;5.90;99.90
43524;DHT22;29120;52.006;6.020;2023-01-23T14:09:28;6.30;99.90
43524;DHT22;29120;52.006;6.020;2023-01-23T14:14:22;6.60;99.90
43524;DHT22;29120;52.006;6.020;2023-01-23T14:17:07;6.60;99.90
43524;DHT22;29120;52.006;6.020;2023-01-23T14:19:33;6.70;99.90
43524;DHT22;29120;52.006;6.020;2023-01-23T14:22:02;6.70;99.90
43524;DHT22;29120;52.006;6.020;2023-01-23T14:24:38;6.70;99.90
43524;DHT22;29120;52.006;6.020;2023-01-23T14:27:09;6.60;99.90
43524;DHT22;29120;52.006;6.020;2023-01-23T14:29:34;6.40;99.90
43524;DHT22;29120;52.006;6.020;2023-01-23T14:32:00;6.20;99.90
43524;DHT22;29120;52.006;6.020;2023-01-23T14:34:25;6.10;99.90
43524;DHT22;29120;52.006;6.020;2023-01-23T14:37:12;5.90;99.90
43524;DHT22;29120;52.006;6.020;2023-01-23T14:39:37;5.80;99.90
43524;DHT22;29120;52.006;6.020;2023-01-23T14:42:03;5.70;99.90
43524;DHT22;29120;52.006;6.020;2023-01-23T14:44:30;5.60;99.90
43524;DHT22;29120;52.006;6.020;2023-01-23T14:46:58;5.90;99.90
43524;DHT22;29120;52.006;6.020;2023-01-23T14:49:34;6.10;99.90
43524;DHT22;29120;52.006;6.020;2023-01-23T14:52:03;6.10;99.90
43524;DHT22;29120;52.006;6.020;2023-01-23T14:54:30;6.20;99.90
43524;DHT22;29120;52.006;6.020;2023-01-23T14:56:55;6.10;99.90
43524;DHT22;29120;52.006;6.020;2023-01-23T14:59:28;6.00;99.90
43524;DHT22;29120;52.006;6.020;2023-01-23T15:01:55;6.00;99.90
43524;DHT22;29120;52.006;6.020;2023-01-23T15:04:22;5.90;99.90
43524;DHT22;29120;52.006;6.020;2023-01-23T15:06:51;5.80;99.90
43524;DHT22;29120;52.006;6.020;2023-01-23T15:09:18;5.70;99.90
43524;DHT22;29120;52.006;6.020;2023-01-23T15:11:46;5.70;99.90
43524;DHT22;29120;52.006;6.020;2023-01-23T15:14:22;5.60;99.90
43524;DHT22;29120;52.006;6.020;2023-01-23T15:16:48;5.60;99.90
43524;DHT22;29120;52.006;6.020;2023-01-23T15:19:19;5.50;99.90
43524;DHT22;29120;52.006;6.020;2023-01-23T15:21:45;5.50;99.90
43524;DHT22;29120;52.006;6.020;2023-01-23T15:26:37;5.50;99.90
43524;DHT22;29120;52.006;6.020;2023-01-23T15:36:38;5.40;99.90
43524;DHT22;29120;52.006;6.020;2023-01-23T15:39:12;5.40;99.90
43524;DHT22;29120;52.006;6.020;2023-01-23T15:41:43;5.30;99.90
43524;DHT22;29120;52.006;6.020;2023-01-23T15:44:13;5.20;99.90
43524;DHT22;29120;52.006;6.020;2023-01-23T15:46:39;5.20;99.90
43524;DHT22;29120;52.006;6.020;2023-01-23T15:49:05;5.20;99.90
43524;DHT22;29120;52.006;6.020;2023-01-23T15:51:30;5.20;99.90
43524;DHT22;29120;52.006;6.020;2023-01-23T15:53:56;5.20;99.90
43524;DHT22;29120;52.006;6.020;2023-01-23T15:56:28;5.20;99.90
43524;DHT22;29120;52.006;6.020;2023-01-23T15:58:54;5.20;99.90
43524;DHT22;29120;52.006;6.020;2023-01-23T16:01:20;5.20;99.90
43524;DHT22;29120;52.006;6.020;2023-01-23T16:03:45;5.20;99.90
43524;DHT22;29120;52.006;6.020;2023-01-23T16:06:17;5.20;99.90
43524;DHT22;29120;52.006;6.020;2023-01-23T16:08:43;5.20;99.90
43524;DHT22;29120;52.006;6.020;2023-01-23T16:11:09;5.20;99.90
43524;DHT22;29120;52.006;6.020;2023-01-23T16:13:34;5.20;99.90
43524;DHT22;29120;52.006;6.020;2023-01-23T16:16:00;5.20;99.90
43524;DHT22;29120;52.006;6.020;2023-01-23T16:18:25;5.10;99.90
43524;DHT22;29120;52.006;6.020;2023-01-23T16:20:51;5.10;99.90
43524;DHT22;29120;52.006;6.020;2023-01-23T16:23:19;5.20;99.90
43524;DHT22;29120;52.006;6.020;2023-01-23T16:25:45;5.10;99.90
43524;DHT22;29120;52.006;6.020;2023-01-23T16:28:11;5.10;99.90
43524;DHT22;29120;52.006;6.020;2023-01-23T16:30:38;5.10;99.90
43524;DHT22;29120;52.006;6.020;2023-01-23T16:33:03;5.10;99.90
43524;DHT22;29120;52.006;6.020;2023-01-23T16:35:29;5.10;99.90
43524;DHT22;29120;52.006;6.020;2023-01-23T16:37:54;5.10;99.90
43524;DHT22;29120;52.006;6.020;2023-01-23T16:40:23;5.10;99.90
43524;DHT22;29120;52.006;6.020;2023-01-23T16:42:49;5.10;99.90
43524;DHT22;29120;52.006;6.020;2023-01-23T16:45:16;5.10;99.90
43524;DHT22;29120;52.006;6.020;2023-01-23T16:47:41;5.10;99.90
43524;DHT22;29120;52.006;6.020;2023-01-23T16:50:10;5.10;99.90
43524;DHT22;29120;52.006;6.020;2023-01-23T16:52:35;5.10;99.90
43524;DHT22;29120;52.006;6.020;2023-01-23T16:55:01;5.10;99.90
43524;DHT22;29120;52.006;6.020;2023-01-23T16:57:28;5.10;99.90
43524;DHT22;29120;52.006;6.020;2023-01-23T16:59:54;5.10;99.90
43524;DHT22;29120;52.006;6.020;2023-01-23T17:04:45;5.10;99.90
43524;DHT22;29120;52.006;6.020;2023-01-23T17:07:14;5.20;99.90
43524;DHT22;29120;52.006;6.020;2023-01-23T17:09:40;5.20;99.90
43524;DHT22;29120;52.006;6.020;2023-01-23T17:12:07;5.20;99.90
43524;DHT22;29120;52.006;6.020;2023-01-23T17:14:36;5.10;99.90
43524;DHT22;29120;52.006;6.020;2023-01-23T17:17:04;5.10;99.90
43524;DHT22;29120;52.006;6.020;2023-01-23T17:19:33;5.10;99.90
43524;DHT22;29120;52.006;6.020;2023-01-23T17:22:00;5.10;99.90
43524;DHT22;29120;52.006;6.020;2023-01-23T17:24:26;5.10;99.90
43524;DHT22;29120;52.006;6.020;2023-01-23T17:26:52;5.10;99.90
43524;DHT22;29120;52.006;6.020;2023-01-23T17:29:17;5.10;99.90
43524;DHT22;29120;52.006;6.020;2023-01-23T17:31:44;5.10;99.90
43524;DHT22;29120;52.006;6.020;2023-01-23T17:34:16;5.10;99.90
43524;DHT22;29120;52.006;6.020;2023-01-23T17:36:43;5.10;99.90